sensor_id;sensor_type;location;lat;lon;timestamp;pressure;altitude;pressure_sealevel;temperature;humidity
21290;BME280;10804;48.988;2.408;2023-01-30T00:01:44;101979.50;;;6.90;65.33
21290;BME280;10804;48.988;2.408;2023-01-30T00:04:12;101976.03;;;6.88;65.76
21290;BME280;10804;48.988;2.408;2023-01-30T00:06:40;101965.63;;;6.86;65.59
21290;BME280;10804;48.988;2.408;2023-01-30T00:09:10;101958.75;;;6.88;65.82
21290;BME280;10804;48.988;2.408;2023-01-30T00:11:38;101963.06;;;6.88;65.68
21290;BME280;10804;48.988;2.408;2023-01-30T00:14:05;101961.34;;;6.88;65.59
21290;BME280;10804;48.988;2.408;2023-01-30T00:16:33;101951.84;;;6.87;65.49
21290;BME280;10804;48.988;2.408;2023-01-30T00:19:00;101955.28;;;6.88;65.48
21290;BME280;10804;48.988;2.408;2023-01-30T00:21:27;101944.03;;;6.89;65.44
21290;BME280;10804;48.988;2.408;2023-01-30T00:23:56;101937.09;;;6.86;65.59
21290;BME280;10804;48.988;2.408;2023-01-30T00:26:24;101930.19;;;6.85;65.61
21290;BME280;10804;48.988;2.408;2023-01-30T00:28:52;101926.75;;;6.86;65.82
21290;BME280;10804;48.988;2.408;2023-01-30T00:31:19;101926.75;;;6.86;65.66
21290;BME280;10804;48.988;2.408;2023-01-30T00:33:46;101925.88;;;6.84;65.96
21290;BME280;10804;48.988;2.408;2023-01-30T00:36:14;101924.16;;;6.85;66.01
21290;BME280;10804;48.988;2.408;2023-01-30T00:38:41;101917.22;;;6.84;65.79
21290;BME280;10804;48.988;2.408;2023-01-30T00:41:10;101911.16;;;6.83;65.99
21290;BME280;10804;48.988;2.408;2023-01-30T00:43:38;101917.22;;;6.84;65.84
21290;BME280;10804;48.988;2.408;2023-01-30T00:46:25;101912.03;;;6.85;65.79
21290;BME280;10804;48.988;2.408;2023-01-30T00:49:12;101895.63;;;6.86;65.56
21290;BME280;10804;48.988;2.408;2023-01-30T00:51:40;101897.34;;;6.84;65.81
21290;BME280;10804;48.988;2.408;2023-01-30T00:54:08;101891.31;;;6.84;65.79
21290;BME280;10804;48.988;2.408;2023-01-30T00:56:36;101880.06;;;6.83;65.97
21290;BME280;10804;48.988;2.408;2023-01-30T00:59:03;101885.25;;;6.83;65.65
21290;BME280;10804;48.988;2.408;2023-01-30T01:01:31;101881.78;;;6.81;65.93
21290;BME280;10804;48.988;2.408;2023-01-30T01:03:58;101885.25;;;6.83;65.88
21290;BME280;10804;48.988;2.408;2023-01-30T01:06:25;101875.72;;;6.81;65.97
21290;BME280;10804;48.988;2.408;2023-01-30T01:08:53;101866.22;;;6.81;65.89
21290;BME280;10804;48.988;2.408;2023-01-30T01:11:20;101866.22;;;6.84;65.62
21290;BME280;10804;48.988;2.408;2023-01-30T01:13:53;101860.19;;;6.84;65.78
21290;BME280;10804;48.988;2.408;2023-01-30T01:16:22;101855.84;;;6.83;65.86
21290;BME280;10804;48.988;2.408;2023-01-30T01:18:49;101846.34;;;6.82;66.00
21290;BME280;10804;48.988;2.408;2023-01-30T01:21:18;101846.34;;;6.83;65.90
21290;BME280;10804;48.988;2.408;2023-01-30T01:23:48;101854.13;;;6.83;66.04
21290;BME280;10804;48.988;2.408;2023-01-30T01:26:16;101852.41;;;6.84;65.71
21290;BME280;10804;48.988;2.408;2023-01-30T01:28:43;101843.78;;;6.85;65.93
21290;BME280;10804;48.988;2.408;2023-01-30T01:31:14;101847.22;;;6.85;65.68
21290;BME280;10804;48.988;2.408;2023-01-30T01:33:42;101847.22;;;6.82;65.70
21290;BME280;10804;48.988;2.408;2023-01-30T01:36:10;101856.75;;;6.85;65.85
21290;BME280;10804;48.988;2.408;2023-01-30T01:38:37;101845.50;;;6.84;66.22
21290;BME280;10804;48.988;2.408;2023-01-30T01:41:04;101838.56;;;6.82;66.17
21290;BME280;10804;48.988;2.408;2023-01-30T01:43:33;101833.38;;;6.83;66.01
21290;BME280;10804;48.988;2.408;2023-01-30T01:46:05;101838.59;;;6.85;65.57
21290;BME280;10804;48.988;2.408;2023-01-30T01:48:38;101837.69;;;6.83;65.75
21290;BME280;10804;48.988;2.408;2023-01-30T01:51:10;101833.38;;;6.80;66.28
21290;BME280;10804;48.988;2.408;2023-01-30T01:53:41;101837.69;;;6.83;65.90
21290;BME280;10804;48.988;2.408;2023-01-30T01:56:11;101836.00;;;6.85;65.87
21290;BME280;10804;48.988;2.408;2023-01-30T01:58:44;101819.56;;;6.84;65.75
21290;BME280;10804;48.988;2.408;2023-01-30T02:01:12;101823.03;;;6.86;65.74
21290;BME280;10804;48.988;2.408;2023-01-30T02:03:44;101824.75;;;6.84;66.17
21290;BME280;10804;48.988;2.408;2023-01-30T02:06:16;101818.72;;;6.84;66.11
21290;BME280;10804;48.988;2.408;2023-01-30T02:08:47;101830.81;;;6.85;65.93
21290;BME280;10804;48.988;2.408;2023-01-30T02:11:21;101826.47;;;6.85;65.89
21290;BME280;10804;48.988;2.408;2023-01-30T02:13:53;101825.63;;;6.88;65.85
21290;BME280;10804;48.988;2.408;2023-01-30T02:16:21;101820.44;;;6.86;66.10
21290;BME280;10804;48.988;2.408;2023-01-30T02:18:50;101817.84;;;6.88;66.08
21290;BME280;10804;48.988;2.408;2023-01-30T02:21:43;101817.84;;;6.83;65.91
21290;BME280;10804;48.988;2.408;2023-01-30T02:24:39;101821.28;;;6.85;65.88
21290;BME280;10804;48.988;2.408;2023-01-30T02:27:20;101831.69;;;6.87;65.97
21290;BME280;10804;48.988;2.408;2023-01-30T02:33:18;101823.88;;;6.85;65.83
21290;BME280;10804;48.988;2.408;2023-01-30T02:35:54;101810.91;;;6.85;65.87
21290;BME280;10804;48.988;2.408;2023-01-30T02:38:32;101823.03;;;6.88;65.84
21290;BME280;10804;48.988;2.408;2023-01-30T02:41:11;101822.19;;;6.87;65.89
21290;BME280;10804;48.988;2.408;2023-01-30T02:43:45;101823.03;;;6.86;66.29
21290;BME280;10804;48.988;2.408;2023-01-30T02:46:22;101836.00;;;6.88;65.81
21290;BME280;10804;48.988;2.408;2023-01-30T02:48:56;101817.84;;;6.83;65.84
21290;BME280;10804;48.988;2.408;2023-01-30T02:51:28;101827.31;;;6.83;66.40
21290;BME280;10804;48.988;2.408;2023-01-30T02:53:56;101835.16;;;6.90;65.86
21290;BME280;10804;48.988;2.408;2023-01-30T02:56:25;101825.63;;;6.88;66.01
21290;BME280;10804;48.988;2.408;2023-01-30T02:58:55;101831.72;;;6.88;65.71
21290;BME280;10804;48.988;2.408;2023-01-30T03:01:38;101822.19;;;6.87;66.06
21290;BME280;10804;48.988;2.408;2023-01-30T03:04:30;101818.69;;;6.85;66.06
21290;BME280;10804;48.988;2.408;2023-01-30T03:07:14;101822.19;;;6.87;65.74
21290;BME280;10804;48.988;2.408;2023-01-30T03:09:50;101835.16;;;6.90;66.12
21290;BME280;10804;48.988;2.408;2023-01-30T03:12:34;101818.72;;;6.84;65.72
21290;BME280;10804;48.988;2.408;2023-01-30T03:15:07;101826.47;;;6.85;65.97
21290;BME280;10804;48.988;2.408;2023-01-30T03:17:39;101836.00;;;6.86;65.72
21290;BME280;10804;48.988;2.408;2023-01-30T03:20:10;101832.56;;;6.90;65.86
21290;BME280;10804;48.988;2.408;2023-01-30T03:22:39;101825.66;;;6.92;65.99
21290;BME280;10804;48.988;2.408;2023-01-30T03:25:07;101823.88;;;6.85;66.41
21290;BME280;10804;48.988;2.408;2023-01-30T03:27:36;101835.16;;;6.87;65.98
21290;BME280;10804;48.988;2.408;2023-01-30T03:30:05;101829.13;;;6.88;65.81
21290;BME280;10804;48.988;2.408;2023-01-30T03:32:33;101825.63;;;6.88;66.06
21290;BME280;10804;48.988;2.408;2023-01-30T03:35:03;101833.44;;;6.92;65.93
21290;BME280;10804;48.988;2.408;2023-01-30T03:37:32;101828.25;;;6.92;66.10
21290;BME280;10804;48.988;2.408;2023-01-30T03:40:00;101829.13;;;6.93;66.12
21290;BME280;10804;48.988;2.408;2023-01-30T03:42:28;101810.97;;;6.91;66.16
21290;BME280;10804;48.988;2.408;2023-01-30T03:44:56;101804.06;;;6.93;65.90
21290;BME280;10804;48.988;2.408;2023-01-30T03:47:23;101800.59;;;6.88;66.23
21290;BME280;10804;48.988;2.408;2023-01-30T03:49:52;101797.13;;;6.89;66.00
21290;BME280;10804;48.988;2.408;2023-01-30T03:52:20;101802.34;;;6.94;65.72
21290;BME280;10804;48.988;2.408;2023-01-30T03:54:49;101800.59;;;6.88;65.87
21290;BME280;10804;48.988;2.408;2023-01-30T03:57:16;101798.00;;;6.94;65.73
21290;BME280;10804;48.988;2.408;2023-01-30T03:59:44;101807.56;;;6.95;66.04
21290;BME280;10804;48.988;2.408;2023-01-30T04:02:14;101813.56;;;6.94;66.29
21290;BME280;10804;48.988;2.408;2023-01-30T04:04:47;101807.56;;;6.95;65.84
21290;BME280;10804;48.988;2.408;2023-01-30T04:07:15;101806.69;;;6.95;65.38
21290;BME280;10804;48.988;2.408;2023-01-30T04:09:44;101790.22;;;6.94;65.92
21290;BME280;10804;48.988;2.408;2023-01-30T04:12:14;101799.75;;;6.94;66.18
21290;BME280;10804;48.988;2.408;2023-01-30T04:14:49;101802.38;;;6.95;66.12
21290;BME280;10804;48.988;2.408;2023-01-30T04:17:35;101789.41;;;6.95;65.98
21290;BME280;10804;48.988;2.408;2023-01-30T04:20:23;101785.03;;;6.94;65.76
21290;BME280;10804;48.988;2.408;2023-01-30T04:22:54;101785.03;;;6.94;65.80
21290;BME280;10804;48.988;2.408;2023-01-30T04:25:24;101771.19;;;6.91;65.90
21290;BME280;10804;48.988;2.408;2023-01-30T04:27:53;101768.63;;;6.94;65.82
21290;BME280;10804;48.988;2.408;2023-01-30T04:30:26;101762.56;;;6.93;66.20
21290;BME280;10804;48.988;2.408;2023-01-30T04:33:04;101774.69;;;6.94;66.01
21290;BME280;10804;48.988;2.408;2023-01-30T04:35:31;101779.03;;;6.98;65.52
21290;BME280;10804;48.988;2.408;2023-01-30T04:37:59;101773.00;;;6.99;66.04
21290;BME280;10804;48.988;2.408;2023-01-30T04:40:27;101776.44;;;6.95;66.09
21290;BME280;10804;48.988;2.408;2023-01-30T04:42:58;101780.75;;;6.96;65.81
21290;BME280;10804;48.988;2.408;2023-01-30T04:45:46;101775.50;;;6.89;65.93
21290;BME280;10804;48.988;2.408;2023-01-30T04:48:14;101764.31;;;6.91;66.11
21290;BME280;10804;48.988;2.408;2023-01-30T04:50:43;101774.72;;;6.97;66.15
21290;BME280;10804;48.988;2.408;2023-01-30T04:53:14;101775.56;;;6.98;65.82
21290;BME280;10804;48.988;2.408;2023-01-30T04:55:41;101781.59;;;6.97;66.11
21290;BME280;10804;48.988;2.408;2023-01-30T04:58:10;101776.44;;;6.95;65.91
21290;BME280;10804;48.988;2.408;2023-01-30T05:00:38;101779.88;;;6.93;66.18
21290;BME280;10804;48.988;2.408;2023-01-30T05:03:05;101772.13;;;6.99;65.86
21290;BME280;10804;48.988;2.408;2023-01-30T05:05:33;101772.94;;;6.93;66.12
21290;BME280;10804;48.988;2.408;2023-01-30T05:08:00;101770.34;;;6.90;66.10
21290;BME280;10804;48.988;2.408;2023-01-30T05:10:27;101772.09;;;6.93;65.96
21290;BME280;10804;48.988;2.408;2023-01-30T05:12:55;101772.06;;;6.90;65.85
21290;BME280;10804;48.988;2.408;2023-01-30T05:15:24;101770.38;;;6.95;65.91
21290;BME280;10804;48.988;2.408;2023-01-30T05:17:51;101766.91;;;6.94;66.20
21290;BME280;10804;48.988;2.408;2023-01-30T05:20:18;101753.91;;;6.88;66.01
21290;BME280;10804;48.988;2.408;2023-01-30T05:22:45;101761.72;;;6.96;65.98
21290;BME280;10804;48.988;2.408;2023-01-30T05:25:13;101758.25;;;6.92;66.20
21290;BME280;10804;48.988;2.408;2023-01-30T05:27:40;101767.81;;;6.99;65.77
21290;BME280;10804;48.988;2.408;2023-01-30T05:30:08;101766.06;;;6.98;65.78
21290;BME280;10804;48.988;2.408;2023-01-30T05:32:37;101764.34;;;6.97;65.96
21290;BME280;10804;48.988;2.408;2023-01-30T05:35:06;101761.72;;;6.96;66.25
21290;BME280;10804;48.988;2.408;2023-01-30T05:37:33;101764.34;;;7.02;65.90
21290;BME280;10804;48.988;2.408;2023-01-30T05:40:03;101766.06;;;6.98;65.87
21290;BME280;10804;48.988;2.408;2023-01-30T05:42:31;101757.44;;;6.99;65.87
21290;BME280;10804;48.988;2.408;2023-01-30T05:44:58;101752.25;;;6.99;65.91
21290;BME280;10804;48.988;2.408;2023-01-30T05:47:26;101738.38;;;6.94;66.19
21290;BME280;10804;48.988;2.408;2023-01-30T05:49:57;101747.06;;;6.96;65.88
21290;BME280;10804;48.988;2.408;2023-01-30T05:52:24;101736.69;;;6.96;65.84
21290;BME280;10804;48.988;2.408;2023-01-30T05:54:52;101733.19;;;6.94;66.06
21290;BME280;10804;48.988;2.408;2023-01-30T05:57:19;101733.22;;;7.00;65.95
21290;BME280;10804;48.988;2.408;2023-01-30T05:59:46;101729.78;;;7.00;65.82
21290;BME280;10804;48.988;2.408;2023-01-30T06:02:13;101741.00;;;6.97;65.88
21290;BME280;10804;48.988;2.408;2023-01-30T06:04:41;101735.81;;;6.97;65.92
21290;BME280;10804;48.988;2.408;2023-01-30T06:07:09;101734.09;;;6.96;65.89
21290;BME280;10804;48.988;2.408;2023-01-30T06:09:37;101740.13;;;6.98;65.78
21290;BME280;10804;48.988;2.408;2023-01-30T06:12:05;101741.03;;;7.02;65.73
21290;BME280;10804;48.988;2.408;2023-01-30T06:14:33;101741.88;;;6.99;65.82
21290;BME280;10804;48.988;2.408;2023-01-30T06:17:00;101745.31;;;6.98;66.39
21290;BME280;10804;48.988;2.408;2023-01-30T06:19:27;101746.19;;;6.97;66.03
21290;BME280;10804;48.988;2.408;2023-01-30T06:21:57;101734.94;;;6.95;66.19
21290;BME280;10804;48.988;2.408;2023-01-30T06:24:26;101743.63;;;7.02;65.96
21290;BME280;10804;48.988;2.408;2023-01-30T06:26:53;101742.75;;;7.00;66.48
21290;BME280;10804;48.988;2.408;2023-01-30T06:29:20;101747.97;;;7.04;66.11
21290;BME280;10804;48.988;2.408;2023-01-30T06:31:48;101760.88;;;7.01;66.30
21290;BME280;10804;48.988;2.408;2023-01-30T06:34:15;101760.03;;;6.99;66.05
21290;BME280;10804;48.988;2.408;2023-01-30T06:36:43;101751.38;;;6.97;66.06
21290;BME280;10804;48.988;2.408;2023-01-30T06:39:10;101761.75;;;6.97;65.86
21290;BME280;10804;48.988;2.408;2023-01-30T06:41:38;101767.81;;;7.04;65.83
21290;BME280;10804;48.988;2.408;2023-01-30T06:44:07;101762.63;;;7.01;66.15
21290;BME280;10804;48.988;2.408;2023-01-30T06:46:34;101770.44;;;7.05;66.07
21290;BME280;10804;48.988;2.408;2023-01-30T06:49:02;101761.75;;;7.00;66.09
21290;BME280;10804;48.988;2.408;2023-01-30T06:51:29;101766.97;;;7.03;66.11
21290;BME280;10804;48.988;2.408;2023-01-30T06:53:57;101767.81;;;7.04;66.33
21290;BME280;10804;48.988;2.408;2023-01-30T06:56:25;101771.28;;;7.04;66.38
21290;BME280;10804;48.988;2.408;2023-01-30T06:58:54;101775.63;;;7.05;66.15
21290;BME280;10804;48.988;2.408;2023-01-30T07:01:21;101774.75;;;7.06;66.48
21290;BME280;10804;48.988;2.408;2023-01-30T07:03:49;101777.31;;;7.05;66.12
21290;BME280;10804;48.988;2.408;2023-01-30T07:06:16;101785.13;;;7.06;65.83
21290;BME280;10804;48.988;2.408;2023-01-30T07:08:43;101794.63;;;7.04;66.00
21290;BME280;10804;48.988;2.408;2023-01-30T07:11:11;101788.59;;;7.10;66.32
21290;BME280;10804;48.988;2.408;2023-01-30T07:13:38;101790.31;;;7.06;66.06
21290;BME280;10804;48.988;2.408;2023-01-30T07:16:07;101790.31;;;7.03;66.36
21290;BME280;10804;48.988;2.408;2023-01-30T07:18:35;101785.97;;;7.01;66.31
21290;BME280;10804;48.988;2.408;2023-01-30T07:21:02;101801.56;;;7.07;66.52
21290;BME280;10804;48.988;2.408;2023-01-30T07:23:29;101792.88;;;7.05;66.33
21290;BME280;10804;48.988;2.408;2023-01-30T07:25:57;101793.78;;;7.05;66.04
21290;BME280;10804;48.988;2.408;2023-01-30T07:28:24;101798.06;;;7.05;66.18
21290;BME280;10804;48.988;2.408;2023-01-30T07:30:51;101800.69;;;7.09;66.12
21290;BME280;10804;48.988;2.408;2023-01-30T07:33:20;101807.66;;;7.10;65.97
21290;BME280;10804;48.988;2.408;2023-01-30T07:35:47;101802.44;;;7.09;65.86
21290;BME280;10804;48.988;2.408;2023-01-30T07:38:15;101785.97;;;7.04;66.21
21290;BME280;10804;48.988;2.408;2023-01-30T07:40:42;101796.38;;;7.10;66.05
21290;BME280;10804;48.988;2.408;2023-01-30T07:43:11;101801.56;;;7.08;66.14
21290;BME280;10804;48.988;2.408;2023-01-30T07:45:40;101802.41;;;7.06;66.11
21290;BME280;10804;48.988;2.408;2023-01-30T07:48:09;101811.94;;;7.08;66.33
21290;BME280;10804;48.988;2.408;2023-01-30T07:50:38;101797.22;;;7.06;66.19
21290;BME280;10804;48.988;2.408;2023-01-30T07:53:07;101809.38;;;7.11;66.09
21290;BME280;10804;48.988;2.408;2023-01-30T07:55:35;101804.16;;;7.05;66.00
21290;BME280;10804;48.988;2.408;2023-01-30T07:58:03;101806.75;;;7.10;66.42
21290;BME280;10804;48.988;2.408;2023-01-30T08:00:31;101810.22;;;7.12;66.37
21290;BME280;10804;48.988;2.408;2023-01-30T08:02:59;101803.31;;;7.11;66.11
21290;BME280;10804;48.988;2.408;2023-01-30T08:05:26;101811.09;;;7.12;66.00
21290;BME280;10804;48.988;2.408;2023-01-30T08:07:55;101805.03;;;7.12;66.55
21290;BME280;10804;48.988;2.408;2023-01-30T08:10:23;101809.38;;;7.11;66.10
21290;BME280;10804;48.988;2.408;2023-01-30T08:12:50;101812.81;;;7.12;66.26
21290;BME280;10804;48.988;2.408;2023-01-30T08:15:18;101809.34;;;7.10;66.12
21290;BME280;10804;48.988;2.408;2023-01-30T08:17:52;101817.13;;;7.08;66.54
21290;BME280;10804;48.988;2.408;2023-01-30T08:20:19;101814.53;;;7.08;66.33
21290;BME280;10804;48.988;2.408;2023-01-30T08:22:47;101820.59;;;7.12;66.20
21290;BME280;10804;48.988;2.408;2023-01-30T08:25:16;101824.09;;;7.15;66.30
21290;BME280;10804;48.988;2.408;2023-01-30T08:27:43;101836.19;;;7.15;66.27
21290;BME280;10804;48.988;2.408;2023-01-30T08:30:11;101819.75;;;7.11;66.08
21290;BME280;10804;48.988;2.408;2023-01-30T08:32:39;101817.16;;;7.11;66.17
21290;BME280;10804;48.988;2.408;2023-01-30T08:35:07;101823.22;;;7.16;66.09
21290;BME280;10804;48.988;2.408;2023-01-30T08:37:35;101832.72;;;7.17;66.45
21290;BME280;10804;48.988;2.408;2023-01-30T08:40:03;101839.69;;;7.18;66.21
21290;BME280;10804;48.988;2.408;2023-01-30T08:42:32;101827.53;;;7.17;66.56
21290;BME280;10804;48.988;2.408;2023-01-30T08:45:00;101827.56;;;7.16;66.46
21290;BME280;10804;48.988;2.408;2023-01-30T08:47:27;101824.94;;;7.14;66.25
21290;BME280;10804;48.988;2.408;2023-01-30T08:49:55;101845.75;;;7.20;66.33
21290;BME280;10804;48.988;2.408;2023-01-30T08:52:22;101847.47;;;7.21;66.65
21290;BME280;10804;48.988;2.408;2023-01-30T08:54:49;101848.28;;;7.17;66.23
21290;BME280;10804;48.988;2.408;2023-01-30T08:57:17;101849.19;;;7.18;66.28
21290;BME280;10804;48.988;2.408;2023-01-30T08:59:45;101864.75;;;7.22;65.86
21290;BME280;10804;48.988;2.408;2023-01-30T09:02:16;101861.31;;;7.22;66.66
21290;BME280;10804;48.988;2.408;2023-01-30T09:04:43;101865.63;;;7.21;66.34
21290;BME280;10804;48.988;2.408;2023-01-30T09:07:13;101865.66;;;7.23;66.25
21290;BME280;10804;48.988;2.408;2023-01-30T09:09:41;101851.78;;;7.19;66.15
21290;BME280;10804;48.988;2.408;2023-01-30T09:12:08;101850.88;;;7.17;66.21
21290;BME280;10804;48.988;2.408;2023-01-30T09:14:36;101859.56;;;7.22;66.56
21290;BME280;10804;48.988;2.408;2023-01-30T09:17:07;101859.63;;;7.25;66.64
21290;BME280;10804;48.988;2.408;2023-01-30T09:19:36;101870.00;;;7.25;66.25
21290;BME280;10804;48.988;2.408;2023-01-30T09:22:03;101866.53;;;7.26;65.98
21290;BME280;10804;48.988;2.408;2023-01-30T09:24:32;101872.59;;;7.25;66.12
21290;BME280;10804;48.988;2.408;2023-01-30T09:26:59;101880.38;;;7.28;66.14
21290;BME280;10804;48.988;2.408;2023-01-30T09:29:27;101875.19;;;7.25;66.43
21290;BME280;10804;48.988;2.408;2023-01-30T09:31:55;101866.50;;;7.25;66.04
21290;BME280;10804;48.988;2.408;2023-01-30T09:34:24;101864.78;;;7.27;66.23
21290;BME280;10804;48.988;2.408;2023-01-30T09:36:53;101855.28;;;7.27;66.16
21290;BME280;10804;48.988;2.408;2023-01-30T09:39:21;101847.50;;;7.29;66.38
21290;BME280;10804;48.988;2.408;2023-01-30T09:41:55;101847.47;;;7.24;66.46
21290;BME280;10804;48.988;2.408;2023-01-30T09:44:50;101858.78;;;7.34;66.27
21290;BME280;10804;48.988;2.408;2023-01-30T09:47:28;101847.56;;;7.33;65.99
21290;BME280;10804;48.988;2.408;2023-01-30T09:50:06;101847.56;;;7.33;66.08
21290;BME280;10804;48.988;2.408;2023-01-30T09:52:48;101835.41;;;7.32;66.07
21290;BME280;10804;48.988;2.408;2023-01-30T09:55:22;101854.47;;;7.37;66.42
21290;BME280;10804;48.988;2.408;2023-01-30T09:57:51;101857.09;;;7.39;66.02
21290;BME280;10804;48.988;2.408;2023-01-30T10:00:23;101850.97;;;7.32;66.38
21290;BME280;10804;48.988;2.408;2023-01-30T10:02:59;101873.53;;;7.42;66.20
21290;BME280;10804;48.988;2.408;2023-01-30T10:05:36;101861.41;;;7.40;66.50
21290;BME280;10804;48.988;2.408;2023-01-30T10:08:37;101879.63;;;7.46;66.27
21290;BME280;10804;48.988;2.408;2023-01-30T10:11:16;101875.28;;;7.46;66.60
21290;BME280;10804;48.988;2.408;2023-01-30T10:16:42;101893.47;;;7.49;66.57
21290;BME280;10804;48.988;2.408;2023-01-30T10:19:26;101899.53;;;7.51;66.23
21290;BME280;10804;48.988;2.408;2023-01-30T10:22:01;101885.69;;;7.50;66.55
21290;BME280;10804;48.988;2.408;2023-01-30T10:24:41;101890.91;;;7.53;66.55
21290;BME280;10804;48.988;2.408;2023-01-30T10:27:15;101887.44;;;7.53;66.15
21290;BME280;10804;48.988;2.408;2023-01-30T10:29:45;101906.50;;;7.58;66.40
21290;BME280;10804;48.988;2.408;2023-01-30T10:32:15;101894.38;;;7.57;65.84
21290;BME280;10804;48.988;2.408;2023-01-30T10:34:46;101877.09;;;7.59;65.75
21290;BME280;10804;48.988;2.408;2023-01-30T10:37:21;101869.28;;;7.56;65.81
21290;BME280;10804;48.988;2.408;2023-01-30T10:39:55;101865.84;;;7.61;65.86
21290;BME280;10804;48.988;2.408;2023-01-30T10:42:28;101865.00;;;7.64;65.51
21290;BME280;10804;48.988;2.408;2023-01-30T10:45:01;101867.59;;;7.65;65.55
21290;BME280;10804;48.988;2.408;2023-01-30T10:47:42;101863.28;;;7.66;65.26
21290;BME280;10804;48.988;2.408;2023-01-30T10:50:14;101845.94;;;7.59;65.64
21290;BME280;10804;48.988;2.408;2023-01-30T10:52:50;101851.16;;;7.65;65.19
21290;BME280;10804;48.988;2.408;2023-01-30T10:55:28;101852.03;;;7.67;65.50
21290;BME280;10804;48.988;2.408;2023-01-30T10:58:01;101861.56;;;7.71;65.48
21290;BME280;10804;48.988;2.408;2023-01-30T11:00:35;101851.16;;;7.68;65.22
21290;BME280;10804;48.988;2.408;2023-01-30T11:03:16;101856.38;;;7.71;65.78
21290;BME280;10804;48.988;2.408;2023-01-30T11:05:48;101849.41;;;7.70;65.63
21290;BME280;10804;48.988;2.408;2023-01-30T11:08:21;101871.97;;;7.77;65.42
21290;BME280;10804;48.988;2.408;2023-01-30T11:10:50;101878.06;;;7.79;65.51
21290;BME280;10804;48.988;2.408;2023-01-30T11:13:21;101876.28;;;7.78;65.42
21290;BME280;10804;48.988;2.408;2023-01-30T11:15:53;101878.03;;;7.82;65.43
21290;BME280;10804;48.988;2.408;2023-01-30T11:18:22;101884.97;;;7.83;65.53
21290;BME280;10804;48.988;2.408;2023-01-30T11:21:02;101879.78;;;7.83;65.20
21290;BME280;10804;48.988;2.408;2023-01-30T11:23:33;101869.38;;;7.83;65.09
21290;BME280;10804;48.988;2.408;2023-01-30T11:26:02;101866.81;;;7.84;65.38
21290;BME280;10804;48.988;2.408;2023-01-30T11:28:35;101865.09;;;7.88;64.88
21290;BME280;10804;48.988;2.408;2023-01-30T11:31:18;101859.88;;;7.91;65.64
21290;BME280;10804;48.988;2.408;2023-01-30T11:33:58;101861.63;;;7.92;65.44
21290;BME280;10804;48.988;2.408;2023-01-30T11:36:28;101854.72;;;7.94;65.47
21290;BME280;10804;48.988;2.408;2023-01-30T11:38:59;101846.00;;;7.86;65.12
21290;BME280;10804;48.988;2.408;2023-01-30T11:41:28;101855.56;;;7.93;65.95
21290;BME280;10804;48.988;2.408;2023-01-30T12:08:22;101805.38;;;8.01;65.81
21290;BME280;10804;48.988;2.408;2023-01-30T12:10:53;101805.38;;;8.01;65.46
21290;BME280;10804;48.988;2.408;2023-01-30T12:13:27;101812.31;;;8.07;65.77
21290;BME280;10804;48.988;2.408;2023-01-30T12:16:14;101806.25;;;8.08;65.66
21290;BME280;10804;48.988;2.408;2023-01-30T12:18:50;101806.25;;;8.06;65.63
21290;BME280;10804;48.988;2.408;2023-01-30T12:21:27;101801.94;;;8.04;66.23
21290;BME280;10804;48.988;2.408;2023-01-30T12:24:04;101807.97;;;8.09;65.87
21290;BME280;10804;48.988;2.408;2023-01-30T12:26:40;101805.41;;;8.16;66.06
21290;BME280;10804;48.988;2.408;2023-01-30T12:29:20;101789.81;;;8.15;66.34
21290;BME280;10804;48.988;2.408;2023-01-30T12:32:01;101792.41;;;8.15;66.26
21290;BME280;10804;48.988;2.408;2023-01-30T12:34:31;101797.66;;;8.21;66.24
21290;BME280;10804;48.988;2.408;2023-01-30T12:37:07;101795.91;;;8.20;66.35
21290;BME280;10804;48.988;2.408;2023-01-30T12:39:48;101802.84;;;8.24;66.51
21290;BME280;10804;48.988;2.408;2023-01-30T12:42:39;101804.56;;;8.26;66.28
21290;BME280;10804;48.988;2.408;2023-01-30T12:45:19;101793.31;;;8.27;66.31
21290;BME280;10804;48.988;2.408;2023-01-30T12:48:14;101795.06;;;8.28;66.62
21290;BME280;10804;48.988;2.408;2023-01-30T12:50:57;101783.78;;;8.28;66.57
21290;BME280;10804;48.988;2.408;2023-01-30T12:53:32;101785.53;;;8.32;66.46
21290;BME280;10804;48.988;2.408;2023-01-30T12:59:10;101777.72;;;8.29;66.30
21290;BME280;10804;48.988;2.408;2023-01-30T13:01:49;101781.19;;;8.32;66.25
21290;BME280;10804;48.988;2.408;2023-01-30T13:04:31;101759.53;;;8.30;66.15
21290;BME280;10804;48.988;2.408;2023-01-30T13:07:09;101754.34;;;8.36;66.64
21290;BME280;10804;48.988;2.408;2023-01-30T13:09:49;101756.94;;;8.39;66.46
21290;BME280;10804;48.988;2.408;2023-01-30T13:12:25;101751.75;;;8.39;66.45
21290;BME280;10804;48.988;2.408;2023-01-30T13:15:00;101757.81;;;8.43;65.89
21290;BME280;10804;48.988;2.408;2023-01-30T13:17:41;101747.41;;;8.44;66.26
21290;BME280;10804;48.988;2.408;2023-01-30T13:20:18;101741.34;;;8.41;66.11
21290;BME280;10804;48.988;2.408;2023-01-30T13:22:53;101750.00;;;8.46;66.11
21290;BME280;10804;48.988;2.408;2023-01-30T13:25:26;101746.53;;;8.45;66.04
21290;BME280;10804;48.988;2.408;2023-01-30T13:28:02;101756.94;;;8.50;66.60
21290;BME280;10804;48.988;2.408;2023-01-30T13:30:33;101742.22;;;8.49;66.04
21290;BME280;10804;48.988;2.408;2023-01-30T13:33:03;101724.88;;;8.48;66.04
21290;BME280;10804;48.988;2.408;2023-01-30T13:35:38;101719.66;;;8.51;65.96
21290;BME280;10804;48.988;2.408;2023-01-30T13:38:09;101730.94;;;8.56;66.41
21290;BME280;10804;48.988;2.408;2023-01-30T13:40:41;101734.41;;;8.55;66.41
21290;BME280;10804;48.988;2.408;2023-01-30T13:43:15;101724.88;;;8.57;66.52
21290;BME280;10804;48.988;2.408;2023-01-30T13:45:46;101730.06;;;8.63;65.93
21290;BME280;10804;48.988;2.408;2023-01-30T13:48:22;101724.84;;;8.54;66.33
21290;BME280;10804;48.988;2.408;2023-01-30T13:51:05;101734.38;;;8.61;66.09
21290;BME280;10804;48.988;2.408;2023-01-30T13:53:41;101731.78;;;8.64;66.33
21290;BME280;10804;48.988;2.408;2023-01-30T13:56:17;101735.25;;;8.66;66.37